sensor_id;sensor_type;location;lat;lon;timestamp;temperature;humidity
4312;DHT22;77323;49.086;9.284;2024-03-17T00:00:38;9.80;67.50
4312;DHT22;77323;49.086;9.284;2024-03-17T00:01:40;9.80;67.60
4312;DHT22;77323;49.086;9.284;2024-03-17T00:02:41;9.80;67.60
4312;DHT22;77323;49.086;9.284;2024-03-17T00:03:43;9.80;67.60
4312;DHT22;77323;49.086;9.284;2024-03-17T00:04:45;9.80;67.60
4312;DHT22;77323;49.086;9.284;2024-03-17T00:05:45;9.80;67.70
4312;DHT22;77323;49.086;9.284;2024-03-17T00:06:46;9.80;67.70
4312;DHT22;77323;49.086;9.284;2024-03-17T00:07:48;10.00;66.80
4312;DHT22;77323;49.086;9.284;2024-03-17T00:08:48;9.80;67.70
4312;DHT22;77323;49.086;9.284;2024-03-17T00:09:50;9.80;67.70
4312;DHT22;77323;49.086;9.284;2024-03-17T00:10:56;9.70;67.50
4312;DHT22;77323;49.086;9.284;2024-03-17T00:11:56;9.70;67.60
4312;DHT22;77323;49.086;9.284;2024-03-17T00:12:57;9.70;67.60
4312;DHT22;77323;49.086;9.284;2024-03-17T00:13:58;9.70;67.60
4312;DHT22;77323;49.086;9.284;2024-03-17T00:14:59;9.70;67.60
4312;DHT22;77323;49.086;9.284;2024-03-17T00:16:00;9.70;67.60
4312;DHT22;77323;49.086;9.284;2024-03-17T00:17:02;9.70;67.60
4312;DHT22;77323;49.086;9.284;2024-03-17T00:18:03;9.70;67.60
4312;DHT22;77323;49.086;9.284;2024-03-17T00:19:04;9.60;67.50
4312;DHT22;77323;49.086;9.284;2024-03-17T00:20:06;9.70;67.50
4312;DHT22;77323;49.086;9.284;2024-03-17T00:21:10;9.60;67.40
4312;DHT22;77323;49.086;9.284;2024-03-17T00:22:10;9.60;68.10
4312;DHT22;77323;49.086;9.284;2024-03-17T00:23:14;9.60;67.40
4312;DHT22;77323;49.086;9.284;2024-03-17T00:24:14;9.60;67.30
4312;DHT22;77323;49.086;9.284;2024-03-17T00:25:15;9.60;67.20
4312;DHT22;77323;49.086;9.284;2024-03-17T00:26:17;9.60;67.30
4312;DHT22;77323;49.086;9.284;2024-03-17T00:27:19;9.80;67.50
4312;DHT22;77323;49.086;9.284;2024-03-17T00:28:20;9.60;67.30
4312;DHT22;77323;49.086;9.284;2024-03-17T00:29:21;9.50;67.20
4312;DHT22;77323;49.086;9.284;2024-03-17T00:30:23;9.50;67.20
4312;DHT22;77323;49.086;9.284;2024-03-17T00:31:23;9.50;67.20
4312;DHT22;77323;49.086;9.284;2024-03-17T00:32:24;9.50;67.10
4312;DHT22;77323;49.086;9.284;2024-03-17T00:33:25;9.50;67.10
4312;DHT22;77323;49.086;9.284;2024-03-17T00:34:27;9.50;67.00
4312;DHT22;77323;49.086;9.284;2024-03-17T00:35:27;9.50;67.10
4312;DHT22;77323;49.086;9.284;2024-03-17T00:36:28;9.70;67.30
4312;DHT22;77323;49.086;9.284;2024-03-17T00:37:29;9.40;67.00
4312;DHT22;77323;49.086;9.284;2024-03-17T00:38:31;9.40;67.00
4312;DHT22;77323;49.086;9.284;2024-03-17T00:39:31;9.40;67.00
4312;DHT22;77323;49.086;9.284;2024-03-17T00:40:32;9.40;67.00
4312;DHT22;77323;49.086;9.284;2024-03-17T00:41:34;9.40;67.00
4312;DHT22;77323;49.086;9.284;2024-03-17T00:42:35;9.40;66.90
4312;DHT22;77323;49.086;9.284;2024-03-17T00:43:35;9.30;66.80
4312;DHT22;77323;49.086;9.284;2024-03-17T00:44:37;9.40;66.80
4312;DHT22;77323;49.086;9.284;2024-03-17T00:45:38;9.30;66.80
4312;DHT22;77323;49.086;9.284;2024-03-17T00:46:38;9.30;66.80
4312;DHT22;77323;49.086;9.284;2024-03-17T00:47:42;9.30;66.80
4312;DHT22;77323;49.086;9.284;2024-03-17T00:48:49;9.30;66.90
4312;DHT22;77323;49.086;9.284;2024-03-17T00:49:50;9.30;66.90
4312;DHT22;77323;49.086;9.284;2024-03-17T00:50:58;9.20;66.80
4312;DHT22;77323;49.086;9.284;2024-03-17T00:51:58;9.20;66.80
4312;DHT22;77323;49.086;9.284;2024-03-17T00:52:59;9.20;66.90
4312;DHT22;77323;49.086;9.284;2024-03-17T00:54:02;9.20;66.90
4312;DHT22;77323;49.086;9.284;2024-03-17T00:55:04;9.20;66.90
4312;DHT22;77323;49.086;9.284;2024-03-17T00:56:05;9.20;66.90
4312;DHT22;77323;49.086;9.284;2024-03-17T00:57:05;9.20;67.00
4312;DHT22;77323;49.086;9.284;2024-03-17T00:58:06;9.20;67.00
4312;DHT22;77323;49.086;9.284;2024-03-17T00:59:07;9.10;67.00
4312;DHT22;77323;49.086;9.284;2024-03-17T01:00:08;9.10;66.90
4312;DHT22;77323;49.086;9.284;2024-03-17T01:01:10;9.10;66.90
4312;DHT22;77323;49.086;9.284;2024-03-17T01:02:12;9.10;67.00
4312;DHT22;77323;49.086;9.284;2024-03-17T01:03:14;9.10;66.90
4312;DHT22;77323;49.086;9.284;2024-03-17T01:04:15;9.10;66.80
4312;DHT22;77323;49.086;9.284;2024-03-17T01:05:15;9.10;66.80
4312;DHT22;77323;49.086;9.284;2024-03-17T01:06:17;9.10;66.80
4312;DHT22;77323;49.086;9.284;2024-03-17T01:07:17;9.00;66.80
4312;DHT22;77323;49.086;9.284;2024-03-17T01:08:19;9.00;66.80
4312;DHT22;77323;49.086;9.284;2024-03-17T01:09:20;9.00;66.80
4312;DHT22;77323;49.086;9.284;2024-03-17T01:10:21;9.00;66.80
4312;DHT22;77323;49.086;9.284;2024-03-17T01:11:22;9.00;66.80
4312;DHT22;77323;49.086;9.284;2024-03-17T01:12:22;9.00;66.90
4312;DHT22;77323;49.086;9.284;2024-03-17T01:13:24;9.00;66.90
4312;DHT22;77323;49.086;9.284;2024-03-17T01:14:25;9.00;66.90
4312;DHT22;77323;49.086;9.284;2024-03-17T01:15:25;8.90;66.90
4312;DHT22;77323;49.086;9.284;2024-03-17T01:16:27;8.90;66.80
4312;DHT22;77323;49.086;9.284;2024-03-17T01:17:27;8.90;66.90
4312;DHT22;77323;49.086;9.284;2024-03-17T01:18:29;8.90;66.90
4312;DHT22;77323;49.086;9.284;2024-03-17T01:19:30;8.90;66.80
4312;DHT22;77323;49.086;9.284;2024-03-17T01:20:34;8.90;66.90
4312;DHT22;77323;49.086;9.284;2024-03-17T01:21:35;8.90;66.90
4312;DHT22;77323;49.086;9.284;2024-03-17T01:22:36;8.90;66.90
4312;DHT22;77323;49.086;9.284;2024-03-17T01:23:37;8.80;66.80
4312;DHT22;77323;49.086;9.284;2024-03-17T01:24:39;8.90;66.90
4312;DHT22;77323;49.086;9.284;2024-03-17T01:25:46;8.80;66.90
4312;DHT22;77323;49.086;9.284;2024-03-17T01:26:47;8.80;67.00
4312;DHT22;77323;49.086;9.284;2024-03-17T01:27:48;8.80;66.90
4312;DHT22;77323;49.086;9.284;2024-03-17T01:28:49;8.80;67.00
4312;DHT22;77323;49.086;9.284;2024-03-17T01:29:50;8.80;67.00
4312;DHT22;77323;49.086;9.284;2024-03-17T01:30:50;8.80;67.00
4312;DHT22;77323;49.086;9.284;2024-03-17T01:31:52;8.80;67.10
4312;DHT22;77323;49.086;9.284;2024-03-17T01:32:53;8.80;67.00
4312;DHT22;77323;49.086;9.284;2024-03-17T01:33:53;8.80;67.00
4312;DHT22;77323;49.086;9.284;2024-03-17T01:34:55;8.70;67.00
4312;DHT22;77323;49.086;9.284;2024-03-17T01:35:55;8.70;67.00
4312;DHT22;77323;49.086;9.284;2024-03-17T01:36:56;8.70;67.00
4312;DHT22;77323;49.086;9.284;2024-03-17T01:37:58;8.70;67.00
4312;DHT22;77323;49.086;9.284;2024-03-17T01:38:59;8.70;67.10
4312;DHT22;77323;49.086;9.284;2024-03-17T01:40:00;8.70;67.10
4312;DHT22;77323;49.086;9.284;2024-03-17T01:41:01;8.70;67.00
4312;DHT22;77323;49.086;9.284;2024-03-17T01:42:03;8.90;67.20
4312;DHT22;77323;49.086;9.284;2024-03-17T01:43:04;8.70;66.90
4312;DHT22;77323;49.086;9.284;2024-03-17T01:44:05;8.70;66.90
4312;DHT22;77323;49.086;9.284;2024-03-17T01:46:26;8.70;67.00
4312;DHT22;77323;49.086;9.284;2024-03-17T01:47:28;8.70;66.90
4312;DHT22;77323;49.086;9.284;2024-03-17T01:48:29;8.60;66.80
4312;DHT22;77323;49.086;9.284;2024-03-17T01:49:30;8.60;66.80
4312;DHT22;77323;49.086;9.284;2024-03-17T01:50:37;8.60;66.80
4312;DHT22;77323;49.086;9.284;2024-03-17T01:51:38;8.60;66.80
4312;DHT22;77323;49.086;9.284;2024-03-17T01:52:40;8.60;66.80
4312;DHT22;77323;49.086;9.284;2024-03-17T01:53:42;8.70;66.90
4312;DHT22;77323;49.086;9.284;2024-03-17T01:54:43;8.60;66.80
4312;DHT22;77323;49.086;9.284;2024-03-17T01:55:47;8.60;66.90
4312;DHT22;77323;49.086;9.284;2024-03-17T01:56:48;8.60;66.90
4312;DHT22;77323;49.086;9.284;2024-03-17T01:57:52;8.60;66.80
4312;DHT22;77323;49.086;9.284;2024-03-17T01:58:53;8.60;66.90
4312;DHT22;77323;49.086;9.284;2024-03-17T01:59:57;8.60;66.90
4312;DHT22;77323;49.086;9.284;2024-03-17T02:00:58;8.60;66.80
4312;DHT22;77323;49.086;9.284;2024-03-17T02:01:59;8.60;66.80
4312;DHT22;77323;49.086;9.284;2024-03-17T02:03:00;8.50;66.70
4312;DHT22;77323;49.086;9.284;2024-03-17T02:04:05;8.50;66.80
4312;DHT22;77323;49.086;9.284;2024-03-17T02:05:06;8.50;66.80
4312;DHT22;77323;49.086;9.284;2024-03-17T02:06:08;8.50;66.80
4312;DHT22;77323;49.086;9.284;2024-03-17T02:07:09;8.50;66.80
4312;DHT22;77323;49.086;9.284;2024-03-17T02:08:11;8.50;66.80
4312;DHT22;77323;49.086;9.284;2024-03-17T02:09:12;8.50;66.80
4312;DHT22;77323;49.086;9.284;2024-03-17T02:10:13;8.50;66.70
4312;DHT22;77323;49.086;9.284;2024-03-17T02:11:27;8.40;66.60
4312;DHT22;77323;49.086;9.284;2024-03-17T02:12:30;8.40;66.70
4312;DHT22;77323;49.086;9.284;2024-03-17T02:13:31;8.40;66.70
4312;DHT22;77323;49.086;9.284;2024-03-17T02:14:33;8.40;66.60
4312;DHT22;77323;49.086;9.284;2024-03-17T02:15:34;8.40;66.70
4312;DHT22;77323;49.086;9.284;2024-03-17T02:16:34;8.40;66.70
4312;DHT22;77323;49.086;9.284;2024-03-17T02:17:35;8.40;66.70
4312;DHT22;77323;49.086;9.284;2024-03-17T02:18:36;8.40;66.80
4312;DHT22;77323;49.086;9.284;2024-03-17T02:19:37;8.30;66.60
4312;DHT22;77323;49.086;9.284;2024-03-17T02:20:38;8.30;66.60
4312;DHT22;77323;49.086;9.284;2024-03-17T02:21:59;8.30;66.60
4312;DHT22;77323;49.086;9.284;2024-03-17T02:23:00;8.30;66.60
4312;DHT22;77323;49.086;9.284;2024-03-17T02:24:01;8.30;66.60
4312;DHT22;77323;49.086;9.284;2024-03-17T02:25:02;8.30;66.70
4312;DHT22;77323;49.086;9.284;2024-03-17T02:26:03;8.30;66.60
4312;DHT22;77323;49.086;9.284;2024-03-17T02:27:05;8.30;66.60
4312;DHT22;77323;49.086;9.284;2024-03-17T02:28:05;8.20;66.50
4312;DHT22;77323;49.086;9.284;2024-03-17T02:29:06;8.30;66.60
4312;DHT22;77323;49.086;9.284;2024-03-17T02:30:08;8.30;66.60
4312;DHT22;77323;49.086;9.284;2024-03-17T02:31:10;8.20;66.60
4312;DHT22;77323;49.086;9.284;2024-03-17T02:32:11;8.20;66.60
4312;DHT22;77323;49.086;9.284;2024-03-17T02:33:12;8.20;66.60
4312;DHT22;77323;49.086;9.284;2024-03-17T02:34:14;8.20;66.60
4312;DHT22;77323;49.086;9.284;2024-03-17T02:35:14;8.20;66.70
4312;DHT22;77323;49.086;9.284;2024-03-17T02:36:15;8.20;66.70
4312;DHT22;77323;49.086;9.284;2024-03-17T02:37:17;8.20;66.70
4312;DHT22;77323;49.086;9.284;2024-03-17T02:38:18;8.20;66.70
4312;DHT22;77323;49.086;9.284;2024-03-17T02:39:39;8.10;67.40
4312;DHT22;77323;49.086;9.284;2024-03-17T02:40:40;8.10;66.60
4312;DHT22;77323;49.086;9.284;2024-03-17T02:41:43;8.10;66.60
4312;DHT22;77323;49.086;9.284;2024-03-17T02:42:46;8.10;66.70
4312;DHT22;77323;49.086;9.284;2024-03-17T02:43:47;8.10;66.70
4312;DHT22;77323;49.086;9.284;2024-03-17T02:44:48;8.10;66.70
4312;DHT22;77323;49.086;9.284;2024-03-17T02:45:49;8.10;66.70
4312;DHT22;77323;49.086;9.284;2024-03-17T02:46:50;8.10;66.70
4312;DHT22;77323;49.086;9.284;2024-03-17T02:47:50;8.10;66.70
4312;DHT22;77323;49.086;9.284;2024-03-17T02:48:53;8.10;66.70
4312;DHT22;77323;49.086;9.284;2024-03-17T02:49:54;8.00;66.60
4312;DHT22;77323;49.086;9.284;2024-03-17T02:50:55;8.10;66.70
4312;DHT22;77323;49.086;9.284;2024-03-17T02:51:56;8.00;66.70
4312;DHT22;77323;49.086;9.284;2024-03-17T02:52:58;8.00;66.60
4312;DHT22;77323;49.086;9.284;2024-03-17T02:53:58;8.00;66.60
4312;DHT22;77323;49.086;9.284;2024-03-17T02:55:00;8.00;66.60
4312;DHT22;77323;49.086;9.284;2024-03-17T02:56:01;8.00;66.60
4312;DHT22;77323;49.086;9.284;2024-03-17T02:57:03;8.00;66.60
4312;DHT22;77323;49.086;9.284;2024-03-17T02:58:04;8.00;66.60
4312;DHT22;77323;49.086;9.284;2024-03-17T02:59:07;8.30;66.90
4312;DHT22;77323;49.086;9.284;2024-03-17T03:00:08;7.90;66.50
4312;DHT22;77323;49.086;9.284;2024-03-17T03:01:13;8.00;66.70
4312;DHT22;77323;49.086;9.284;2024-03-17T03:02:15;7.90;66.60
4312;DHT22;77323;49.086;9.284;2024-03-17T03:03:16;7.90;66.60
4312;DHT22;77323;49.086;9.284;2024-03-17T03:04:17;7.90;66.60
4312;DHT22;77323;49.086;9.284;2024-03-17T03:05:18;7.90;66.60
4312;DHT22;77323;49.086;9.284;2024-03-17T03:06:19;7.90;66.60
4312;DHT22;77323;49.086;9.284;2024-03-17T03:07:20;7.90;66.60
4312;DHT22;77323;49.086;9.284;2024-03-17T03:08:22;7.90;66.60
4312;DHT22;77323;49.086;9.284;2024-03-17T03:09:23;7.90;66.60
4312;DHT22;77323;49.086;9.284;2024-03-17T03:10:31;7.90;66.60
4312;DHT22;77323;49.086;9.284;2024-03-17T03:11:32;7.90;66.60
4312;DHT22;77323;49.086;9.284;2024-03-17T03:12:33;7.80;66.50
4312;DHT22;77323;49.086;9.284;2024-03-17T03:13:34;7.80;67.10
4312;DHT22;77323;49.086;9.284;2024-03-17T03:14:36;7.80;66.50
4312;DHT22;77323;49.086;9.284;2024-03-17T03:15:38;7.80;66.50
4312;DHT22;77323;49.086;9.284;2024-03-17T03:16:39;7.80;66.50
4312;DHT22;77323;49.086;9.284;2024-03-17T03:17:41;7.80;66.50
4312;DHT22;77323;49.086;9.284;2024-03-17T03:18:42;7.80;66.50
4312;DHT22;77323;49.086;9.284;2024-03-17T03:19:44;7.80;66.50
4312;DHT22;77323;49.086;9.284;2024-03-17T03:20:51;7.80;66.50
4312;DHT22;77323;49.086;9.284;2024-03-17T03:21:52;7.80;66.60
4312;DHT22;77323;49.086;9.284;2024-03-17T03:22:54;7.80;66.60
4312;DHT22;77323;49.086;9.284;2024-03-17T03:23:54;7.70;66.50
4312;DHT22;77323;49.086;9.284;2024-03-17T03:24:55;7.70;66.50
4312;DHT22;77323;49.086;9.284;2024-03-17T03:25:57;7.70;66.60
4312;DHT22;77323;49.086;9.284;2024-03-17T03:26:58;7.70;66.60
4312;DHT22;77323;49.086;9.284;2024-03-17T03:28:00;7.70;66.60
4312;DHT22;77323;49.086;9.284;2024-03-17T03:29:02;7.70;66.60
4312;DHT22;77323;49.086;9.284;2024-03-17T03:30:05;7.70;66.60
4312;DHT22;77323;49.086;9.284;2024-03-17T03:31:12;7.70;66.60
4312;DHT22;77323;49.086;9.284;2024-03-17T03:32:14;7.70;66.60
4312;DHT22;77323;49.086;9.284;2024-03-17T03:33:15;7.70;66.50
4312;DHT22;77323;49.086;9.284;2024-03-17T03:34:16;7.60;66.50
4312;DHT22;77323;49.086;9.284;2024-03-17T03:35:17;7.60;66.40
4312;DHT22;77323;49.086;9.284;2024-03-17T03:36:18;7.60;66.40
4312;DHT22;77323;49.086;9.284;2024-03-17T03:37:21;7.60;66.40
4312;DHT22;77323;49.086;9.284;2024-03-17T03:38:23;7.60;66.40
4312;DHT22;77323;49.086;9.284;2024-03-17T03:39:25;7.60;66.40
4312;DHT22;77323;49.086;9.284;2024-03-17T03:40:28;7.70;66.60
4312;DHT22;77323;49.086;9.284;2024-03-17T03:41:31;7.60;66.50
4312;DHT22;77323;49.086;9.284;2024-03-17T03:42:32;7.60;66.50
4312;DHT22;77323;49.086;9.284;2024-03-17T03:43:33;7.60;66.60
4312;DHT22;77323;49.086;9.284;2024-03-17T03:44:34;7.50;66.50
4312;DHT22;77323;49.086;9.284;2024-03-17T03:45:36;7.50;66.40
4312;DHT22;77323;49.086;9.284;2024-03-17T03:46:37;7.50;66.50
4312;DHT22;77323;49.086;9.284;2024-03-17T03:47:42;7.50;66.40
4312;DHT22;77323;49.086;9.284;2024-03-17T03:48:43;7.50;66.50
4312;DHT22;77323;49.086;9.284;2024-03-17T03:49:44;7.50;66.40
4312;DHT22;77323;49.086;9.284;2024-03-17T03:50:45;7.50;66.40
4312;DHT22;77323;49.086;9.284;2024-03-17T03:51:46;7.50;66.40
4312;DHT22;77323;49.086;9.284;2024-03-17T03:52:48;7.50;66.40
4312;DHT22;77323;49.086;9.284;2024-03-17T03:53:50;7.50;66.50
4312;DHT22;77323;49.086;9.284;2024-03-17T03:54:52;7.50;66.50
4312;DHT22;77323;49.086;9.284;2024-03-17T03:55:53;7.50;66.40
4312;DHT22;77323;49.086;9.284;2024-03-17T03:56:53;7.50;66.40
4312;DHT22;77323;49.086;9.284;2024-03-17T03:57:55;7.50;66.40
4312;DHT22;77323;49.086;9.284;2024-03-17T03:58:56;7.50;66.40
4312;DHT22;77323;49.086;9.284;2024-03-17T03:59:59;7.40;66.30
4312;DHT22;77323;49.086;9.284;2024-03-17T04:01:00;7.40;66.40
4312;DHT22;77323;49.086;9.284;2024-03-17T04:02:02;7.40;66.40
4312;DHT22;77323;49.086;9.284;2024-03-17T04:03:03;7.40;66.40
4312;DHT22;77323;49.086;9.284;2024-03-17T04:04:04;7.40;66.40
4312;DHT22;77323;49.086;9.284;2024-03-17T04:05:06;7.40;66.40
4312;DHT22;77323;49.086;9.284;2024-03-17T04:06:08;7.30;66.30
4312;DHT22;77323;49.086;9.284;2024-03-17T04:07:10;7.40;66.40
4312;DHT22;77323;49.086;9.284;2024-03-17T04:08:12;7.30;66.30
4312;DHT22;77323;49.086;9.284;2024-03-17T04:09:13;7.30;66.30
4312;DHT22;77323;49.086;9.284;2024-03-17T04:10:15;7.30;66.30
4312;DHT22;77323;49.086;9.284;2024-03-17T04:11:19;7.30;66.30
4312;DHT22;77323;49.086;9.284;2024-03-17T04:12:20;7.30;67.00
4312;DHT22;77323;49.086;9.284;2024-03-17T04:13:21;7.30;66.30
4312;DHT22;77323;49.086;9.284;2024-03-17T04:14:21;7.20;66.20
4312;DHT22;77323;49.086;9.284;2024-03-17T04:15:24;7.30;66.20
4312;DHT22;77323;49.086;9.284;2024-03-17T04:16:24;7.20;66.20
4312;DHT22;77323;49.086;9.284;2024-03-17T04:17:26;7.20;66.20
4312;DHT22;77323;49.086;9.284;2024-03-17T04:18:27;7.20;66.20
4312;DHT22;77323;49.086;9.284;2024-03-17T04:19:30;7.20;66.20
4312;DHT22;77323;49.086;9.284;2024-03-17T04:20:32;7.20;66.20
4312;DHT22;77323;49.086;9.284;2024-03-17T04:21:32;7.20;66.20
4312;DHT22;77323;49.086;9.284;2024-03-17T04:22:34;7.20;66.20
4312;DHT22;77323;49.086;9.284;2024-03-17T04:23:35;7.20;66.10
4312;DHT22;77323;49.086;9.284;2024-03-17T04:24:37;7.10;66.10
4312;DHT22;77323;49.086;9.284;2024-03-17T04:25:39;7.10;66.10
4312;DHT22;77323;49.086;9.284;2024-03-17T04:26:42;7.10;66.10
4312;DHT22;77323;49.086;9.284;2024-03-17T04:27:43;7.10;66.20
4312;DHT22;77323;49.086;9.284;2024-03-17T04:28:44;7.10;66.80
4312;DHT22;77323;49.086;9.284;2024-03-17T04:29:53;7.10;66.10
4312;DHT22;77323;49.086;9.284;2024-03-17T04:31:05;7.10;66.20
4312;DHT22;77323;49.086;9.284;2024-03-17T04:32:07;7.10;66.20
4312;DHT22;77323;49.086;9.284;2024-03-17T04:33:07;7.00;66.00
4312;DHT22;77323;49.086;9.284;2024-03-17T04:34:09;7.00;66.10
4312;DHT22;77323;49.086;9.284;2024-03-17T04:35:09;7.00;66.10
4312;DHT22;77323;49.086;9.284;2024-03-17T04:36:11;7.00;66.00
4312;DHT22;77323;49.086;9.284;2024-03-17T04:37:12;7.00;66.10
4312;DHT22;77323;49.086;9.284;2024-03-17T04:38:12;7.00;66.10
4312;DHT22;77323;49.086;9.284;2024-03-17T04:39:15;7.00;66.10
4312;DHT22;77323;49.086;9.284;2024-03-17T04:40:16;7.00;66.80
4312;DHT22;77323;49.086;9.284;2024-03-17T04:41:23;7.00;65.90
4312;DHT22;77323;49.086;9.284;2024-03-17T04:42:24;7.00;66.20
4312;DHT22;77323;49.086;9.284;2024-03-17T04:43:26;7.00;66.20
4312;DHT22;77323;49.086;9.284;2024-03-17T04:44:28;6.90;66.20
4312;DHT22;77323;49.086;9.284;2024-03-17T04:45:29;6.90;66.20
4312;DHT22;77323;49.086;9.284;2024-03-17T04:46:30;6.90;66.20
4312;DHT22;77323;49.086;9.284;2024-03-17T04:47:31;6.90;66.30
4312;DHT22;77323;49.086;9.284;2024-03-17T04:48:32;6.90;66.30
4312;DHT22;77323;49.086;9.284;2024-03-17T04:49:37;6.90;66.40
4312;DHT22;77323;49.086;9.284;2024-03-17T04:50:39;6.90;66.40
4312;DHT22;77323;49.086;9.284;2024-03-17T04:51:39;6.90;66.40
4312;DHT22;77323;49.086;9.284;2024-03-17T04:52:41;6.90;66.40
4312;DHT22;77323;49.086;9.284;2024-03-17T04:53:41;6.90;66.40
4312;DHT22;77323;49.086;9.284;2024-03-17T04:54:43;6.90;66.40
4312;DHT22;77323;49.086;9.284;2024-03-17T04:55:44;6.90;66.50
4312;DHT22;77323;49.086;9.284;2024-03-17T04:56:45;6.90;66.50
4312;DHT22;77323;49.086;9.284;2024-03-17T04:57:47;6.90;66.40
4312;DHT22;77323;49.086;9.284;2024-03-17T04:58:49;6.90;66.40
4312;DHT22;77323;49.086;9.284;2024-03-17T04:59:49;6.80;66.30
4312;DHT22;77323;49.086;9.284;2024-03-17T05:00:51;6.90;66.40
4312;DHT22;77323;49.086;9.284;2024-03-17T05:01:52;6.80;66.30
4312;DHT22;77323;49.086;9.284;2024-03-17T05:02:54;6.80;66.40
4312;DHT22;77323;49.086;9.284;2024-03-17T05:03:55;6.80;66.40
4312;DHT22;77323;49.086;9.284;2024-03-17T05:04:56;6.80;66.50
4312;DHT22;77323;49.086;9.284;2024-03-17T05:06:03;6.80;66.50
4312;DHT22;77323;49.086;9.284;2024-03-17T05:07:05;6.80;66.60
4312;DHT22;77323;49.086;9.284;2024-03-17T05:08:06;6.80;66.50
4312;DHT22;77323;49.086;9.284;2024-03-17T05:09:08;6.80;66.60
4312;DHT22;77323;49.086;9.284;2024-03-17T05:10:08;6.80;66.50
4312;DHT22;77323;49.086;9.284;2024-03-17T05:11:10;6.80;66.50
4312;DHT22;77323;49.086;9.284;2024-03-17T05:12:12;6.80;66.60
4312;DHT22;77323;49.086;9.284;2024-03-17T05:13:13;6.80;66.50
4312;DHT22;77323;49.086;9.284;2024-03-17T05:14:14;6.80;66.50
4312;DHT22;77323;49.086;9.284;2024-03-17T05:15:15;6.70;66.40
4312;DHT22;77323;49.086;9.284;2024-03-17T05:16:16;6.70;66.40
4312;DHT22;77323;49.086;9.284;2024-03-17T05:17:18;6.80;66.50
4312;DHT22;77323;49.086;9.284;2024-03-17T05:18:19;6.70;66.40
4312;DHT22;77323;49.086;9.284;2024-03-17T05:19:20;6.70;66.40
4312;DHT22;77323;49.086;9.284;2024-03-17T05:20:22;6.70;66.40
4312;DHT22;77323;49.086;9.284;2024-03-17T05:21:22;6.70;66.40
4312;DHT22;77323;49.086;9.284;2024-03-17T05:22:24;6.70;66.40
4312;DHT22;77323;49.086;9.284;2024-03-17T05:23:29;6.70;66.30
4312;DHT22;77323;49.086;9.284;2024-03-17T05:24:30;6.70;66.40
4312;DHT22;77323;49.086;9.284;2024-03-17T05:25:32;6.70;66.30
4312;DHT22;77323;49.086;9.284;2024-03-17T05:26:36;6.70;66.30
4312;DHT22;77323;49.086;9.284;2024-03-17T05:27:38;6.70;66.30
4312;DHT22;77323;49.086;9.284;2024-03-17T05:28:39;6.70;66.30
4312;DHT22;77323;49.086;9.284;2024-03-17T05:29:39;6.60;66.20
4312;DHT22;77323;49.086;9.284;2024-03-17T05:30:41;6.60;66.20
4312;DHT22;77323;49.086;9.284;2024-03-17T05:31:43;6.60;66.10
4312;DHT22;77323;49.086;9.284;2024-03-17T05:32:44;6.60;66.20
4312;DHT22;77323;49.086;9.284;2024-03-17T05:33:45;6.60;66.20
4312;DHT22;77323;49.086;9.284;2024-03-17T05:34:45;6.60;66.20
4312;DHT22;77323;49.086;9.284;2024-03-17T05:36:54;6.60;66.20
4312;DHT22;77323;49.086;9.284;2024-03-17T05:37:55;6.60;66.20
4312;DHT22;77323;49.086;9.284;2024-03-17T05:38:57;6.60;66.20
4312;DHT22;77323;49.086;9.284;2024-03-17T05:39:58;6.60;66.20
4312;DHT22;77323;49.086;9.284;2024-03-17T05:41:01;6.50;66.20
4312;DHT22;77323;49.086;9.284;2024-03-17T05:42:02;6.50;66.20
4312;DHT22;77323;49.086;9.284;2024-03-17T05:43:04;6.50;66.20
4312;DHT22;77323;49.086;9.284;2024-03-17T05:44:04;6.50;66.10
4312;DHT22;77323;49.086;9.284;2024-03-17T05:45:06;6.50;66.10
4312;DHT22;77323;49.086;9.284;2024-03-17T05:46:12;6.50;66.10
4312;DHT22;77323;49.086;9.284;2024-03-17T05:47:14;6.50;66.10
4312;DHT22;77323;49.086;9.284;2024-03-17T05:48:15;6.50;66.10
4312;DHT22;77323;49.086;9.284;2024-03-17T05:49:16;6.50;66.00
4312;DHT22;77323;49.086;9.284;2024-03-17T05:50:17;6.50;66.00
4312;DHT22;77323;49.086;9.284;2024-03-17T05:51:18;6.50;66.00
4312;DHT22;77323;49.086;9.284;2024-03-17T05:52:19;6.40;66.00
4312;DHT22;77323;49.086;9.284;2024-03-17T05:53:22;6.40;66.00
4312;DHT22;77323;49.086;9.284;2024-03-17T05:54:24;6.40;66.00
4312;DHT22;77323;49.086;9.284;2024-03-17T05:55:26;6.40;66.00
4312;DHT22;77323;49.086;9.284;2024-03-17T05:56:26;6.40;66.00
4312;DHT22;77323;49.086;9.284;2024-03-17T05:57:28;6.40;66.10
4312;DHT22;77323;49.086;9.284;2024-03-17T05:58:29;6.40;66.10
4312;DHT22;77323;49.086;9.284;2024-03-17T05:59:31;6.40;66.10
4312;DHT22;77323;49.086;9.284;2024-03-17T06:00:31;6.40;66.10
4312;DHT22;77323;49.086;9.284;2024-03-17T06:01:33;6.40;66.10
4312;DHT22;77323;49.086;9.284;2024-03-17T06:02:33;6.40;66.10
4312;DHT22;77323;49.086;9.284;2024-03-17T06:03:35;6.40;66.10
4312;DHT22;77323;49.086;9.284;2024-03-17T06:04:36;6.40;66.10
4312;DHT22;77323;49.086;9.284;2024-03-17T06:05:40;6.40;66.10
4312;DHT22;77323;49.086;9.284;2024-03-17T06:06:41;6.40;66.10
4312;DHT22;77323;49.086;9.284;2024-03-17T06:07:42;6.40;66.10
4312;DHT22;77323;49.086;9.284;2024-03-17T06:08:43;6.40;66.10
4312;DHT22;77323;49.086;9.284;2024-03-17T06:09:44;6.40;66.10
4312;DHT22;77323;49.086;9.284;2024-03-17T06:10:48;6.40;66.20
4312;DHT22;77323;49.086;9.284;2024-03-17T06:11:49;6.40;66.20
4312;DHT22;77323;49.086;9.284;2024-03-17T06:12:50;6.40;66.20
4312;DHT22;77323;49.086;9.284;2024-03-17T06:13:51;6.40;66.20
4312;DHT22;77323;49.086;9.284;2024-03-17T06:14:53;6.40;66.20
4312;DHT22;77323;49.086;9.284;2024-03-17T06:15:53;6.40;66.20
4312;DHT22;77323;49.086;9.284;2024-03-17T06:16:54;6.40;66.20
4312;DHT22;77323;49.086;9.284;2024-03-17T06:17:56;6.40;66.20
4312;DHT22;77323;49.086;9.284;2024-03-17T06:18:56;6.40;66.20
4312;DHT22;77323;49.086;9.284;2024-03-17T06:19:58;6.40;66.20
4312;DHT22;77323;49.086;9.284;2024-03-17T06:21:05;6.40;66.30
4312;DHT22;77323;49.086;9.284;2024-03-17T06:22:05;6.40;66.20
4312;DHT22;77323;49.086;9.284;2024-03-17T06:23:07;6.40;66.20
4312;DHT22;77323;49.086;9.284;2024-03-17T06:24:08;6.40;66.20
4312;DHT22;77323;49.086;9.284;2024-03-17T06:25:10;6.40;66.30
4312;DHT22;77323;49.086;9.284;2024-03-17T06:26:12;6.40;66.30
4312;DHT22;77323;49.086;9.284;2024-03-17T06:27:14;6.40;66.30
4312;DHT22;77323;49.086;9.284;2024-03-17T06:28:16;6.40;66.30
4312;DHT22;77323;49.086;9.284;2024-03-17T06:29:17;6.40;66.40
4312;DHT22;77323;49.086;9.284;2024-03-17T06:30:19;6.40;66.30
4312;DHT22;77323;49.086;9.284;2024-03-17T06:31:20;6.40;66.40
4312;DHT22;77323;49.086;9.284;2024-03-17T06:32:21;6.40;66.40
4312;DHT22;77323;49.086;9.284;2024-03-17T06:33:22;6.40;66.50
4312;DHT22;77323;49.086;9.284;2024-03-17T06:34:23;6.40;66.40
4312;DHT22;77323;49.086;9.284;2024-03-17T06:35:24;6.40;66.50
4312;DHT22;77323;49.086;9.284;2024-03-17T06:36:27;6.40;66.50
4312;DHT22;77323;49.086;9.284;2024-03-17T06:37:28;6.40;66.50
4312;DHT22;77323;49.086;9.284;2024-03-17T06:38:29;6.40;66.60
4312;DHT22;77323;49.086;9.284;2024-03-17T06:39:30;6.40;66.60
4312;DHT22;77323;49.086;9.284;2024-03-17T06:40:31;6.50;66.70
4312;DHT22;77323;49.086;9.284;2024-03-17T06:41:32;6.40;66.60
4312;DHT22;77323;49.086;9.284;2024-03-17T06:42:33;6.50;66.80
4312;DHT22;77323;49.086;9.284;2024-03-17T06:43:34;6.50;66.80
4312;DHT22;77323;49.086;9.284;2024-03-17T06:44:35;6.50;66.80
4312;DHT22;77323;49.086;9.284;2024-03-17T06:45:36;6.50;66.80